createdAt,value
2019-03-24T11:37:29.964Z,30.27
2019-03-24T11:39:58.559Z,30.90
2019-03-24T11:42:27.146Z,28.90
2019-03-24T11:44:55.731Z,29.93
2019-03-24T11:47:26.799Z,28.80
2019-03-24T11:49:54.531Z,28.80
2019-03-24T11:52:23.089Z,26.57
2019-03-24T11:54:51.682Z,27.07
2019-03-24T11:57:20.301Z,27.97
2019-03-24T11:59:48.859Z,28.37
2019-03-24T12:02:17.448Z,27.97
2019-03-24T12:04:46.028Z,28.20
2019-03-24T12:07:14.655Z,28.37
2019-03-24T12:09:43.304Z,28.37
2019-03-24T12:12:11.877Z,27.00
2019-03-24T12:14:40.481Z,25.87
2019-03-24T12:17:09.093Z,29.33
2019-03-24T12:19:37.670Z,28.60
2019-03-24T12:22:06.336Z,29.73
2019-03-24T12:24:34.929Z,29.27
2019-03-24T12:27:03.471Z,28.83
2019-03-24T12:29:32.076Z,27.70
2019-03-24T12:32:00.639Z,29.17
2019-03-24T12:34:29.215Z,30.40
2019-03-24T12:36:57.766Z,28.53
2019-03-24T12:39:26.375Z,31.80
2019-03-24T12:41:54.939Z,26.63
2019-03-24T12:44:23.610Z,26.60
2019-03-24T12:46:52.319Z,25.27
2019-03-24T12:49:20.880Z,26.17
2019-03-24T12:51:49.465Z,26.13
2019-03-24T12:54:18.049Z,22.97
2019-03-24T12:56:46.643Z,23.07
2019-03-24T12:59:15.303Z,21.03
2019-03-24T13:01:43.875Z,22.93
2019-03-24T13:04:12.429Z,21.70
2019-03-24T13:06:41.003Z,20.03
2019-03-24T13:09:09.563Z,19.60
2019-03-24T13:11:38.349Z,20.37
2019-03-24T13:14:07.146Z,23.57
2019-03-24T13:16:35.771Z,23.13
2019-03-24T13:19:04.474Z,24.50
2019-03-24T13:21:33.060Z,23.47
2019-03-24T13:24:01.631Z,23.80
2019-03-24T13:26:30.212Z,22.63
2019-03-24T13:28:58.967Z,24.43
2019-03-24T13:31:27.603Z,23.53
2019-03-24T13:33:56.167Z,24.13
2019-03-24T13:36:24.791Z,24.57
2019-03-24T13:38:53.422Z,22.97
2019-03-24T13:41:22.135Z,22.90
2019-03-24T13:43:50.796Z,23.27
2019-03-24T13:46:19.411Z,25.23
2019-03-24T13:48:47.956Z,24.77
2019-03-24T13:51:16.731Z,24.60
2019-03-24T13:53:45.303Z,26.33
2019-03-24T13:56:13.889Z,23.87
2019-03-24T13:58:42.487Z,26.37
2019-03-24T14:01:11.880Z,26.20
2019-03-24T14:03:40.444Z,24.37
2019-03-24T14:06:09.048Z,24.13
2019-03-24T14:08:37.647Z,25.77
2019-03-24T14:11:06.388Z,25.93
2019-03-24T14:13:34.948Z,25.27
2019-03-24T14:16:03.686Z,25.10
2019-03-24T14:18:32.381Z,24.40
2019-03-24T14:21:01.084Z,26.37
2019-03-24T14:23:29.715Z,24.63
2019-03-24T14:25:58.276Z,23.27
2019-03-24T14:28:26.858Z,24.00
2019-03-24T14:30:55.469Z,24.03
2019-03-24T14:33:24.129Z,23.23
2019-03-24T14:35:52.699Z,23.50
2019-03-24T14:38:21.355Z,24.60
2019-03-24T14:40:49.942Z,25.07
2019-03-24T14:43:18.530Z,23.80
2019-03-24T14:45:47.091Z,23.33
2019-03-24T14:48:15.814Z,24.67
2019-03-24T14:50:53.965Z,24.97
2019-03-24T14:53:14.833Z,23.80
2019-03-24T14:55:43.391Z,23.33
2019-03-24T14:58:12.078Z,24.97
2019-03-24T15:00:42.184Z,23.83
2019-03-24T15:03:11.103Z,23.67
2019-03-24T15:05:39.759Z,24.30
2019-03-24T15:08:08.713Z,23.63
2019-03-24T15:10:37.618Z,22.83
2019-03-24T15:13:06.333Z,24.23
2019-03-24T15:15:34.963Z,22.23
2019-03-24T15:18:03.547Z,25.70
2019-03-24T15:20:32.147Z,23.73
2019-03-24T15:23:00.739Z,23.00
2019-03-24T15:25:29.296Z,24.60
2019-03-24T15:27:57.897Z,23.63
2019-03-24T15:30:26.536Z,24.10
2019-03-24T15:32:55.119Z,23.37
2019-03-24T15:35:23.751Z,23.17
2019-03-24T15:37:52.429Z,24.40
2019-03-24T15:40:20.983Z,24.73
2019-03-24T15:42:49.570Z,24.57
2019-03-24T15:45:18.260Z,22.60
2019-03-24T15:47:46.912Z,23.50
2019-03-24T15:50:15.536Z,25.17
2019-03-24T15:52:44.119Z,24.67
2019-03-24T15:55:12.828Z,24.67
2019-03-24T15:57:41.408Z,23.60
2019-03-24T16:00:11.379Z,25.70
2019-03-24T16:02:40.295Z,26.93
2019-03-24T16:05:08.891Z,25.57
2019-03-24T16:07:37.548Z,23.97
2019-03-24T16:10:07.568Z,26.87
2019-03-24T16:12:36.276Z,26.80
2019-03-24T16:15:07.065Z,27.13
2019-03-24T16:17:35.626Z,25.87
2019-03-24T16:20:09.760Z,28.83
2019-03-24T16:22:36.721Z,27.73
2019-03-24T16:25:07.442Z,28.33
2019-03-24T16:27:36.106Z,29.07
2019-03-24T16:30:06.540Z,31.87
2019-03-24T16:32:35.115Z,29.83
2019-03-24T16:35:04.448Z,32.00
2019-03-24T16:37:33.019Z,33.17
2019-03-24T16:40:01.613Z,33.67
2019-03-24T16:42:30.248Z,32.90
2019-03-24T16:44:58.828Z,33.07
2019-03-24T16:47:27.392Z,33.00
2019-03-24T16:49:55.979Z,32.07
2019-03-24T16:52:24.547Z,33.63
2019-03-24T16:54:53.165Z,33.10
2019-03-24T16:57:21.711Z,34.27
2019-03-24T16:59:50.233Z,34.67
2019-03-24T17:02:18.782Z,35.23
2019-03-24T17:04:47.463Z,35.90
2019-03-24T17:07:17.675Z,36.47
2019-03-24T17:09:46.529Z,35.63
2019-03-24T17:12:16.934Z,37.67
2019-03-24T17:14:45.483Z,34.27
2019-03-24T17:17:14.116Z,34.87
2019-03-24T17:19:42.691Z,36.40
2019-03-24T17:22:11.252Z,38.53
2019-03-24T17:24:39.854Z,35.97
2019-03-24T17:27:08.395Z,35.57
2019-03-24T17:29:37.128Z,33.57
2019-03-24T17:32:05.773Z,35.60
2019-03-24T17:34:34.347Z,34.40
2019-03-24T17:37:02.907Z,36.77
2019-03-24T17:39:31.566Z,36.67
2019-03-24T17:42:00.133Z,35.60
2019-03-24T17:44:28.791Z,37.53
2019-03-24T17:46:57.352Z,34.63
2019-03-24T17:49:25.938Z,35.67
2019-03-24T17:52:00.583Z,35.53
2019-03-24T17:54:24.783Z,35.93
2019-03-24T17:56:53.355Z,36.77
2019-03-24T17:59:21.919Z,38.20
2019-03-24T18:01:50.502Z,34.80
2019-03-24T18:04:24.611Z,37.47
2019-03-24T18:06:49.291Z,38.47
2019-03-24T18:09:17.851Z,35.43
2019-03-24T18:11:46.431Z,37.87
2019-03-24T18:14:15.093Z,38.17
2019-03-24T18:16:43.693Z,38.83
2019-03-24T18:19:12.320Z,36.37
2019-03-24T18:21:40.916Z,38.23
2019-03-24T18:24:09.469Z,37.93
2019-03-24T18:26:38.056Z,36.00
2019-03-24T18:29:06.610Z,37.30
2019-03-24T18:31:35.239Z,37.60
2019-03-24T18:34:03.927Z,39.40
2019-03-24T18:36:32.603Z,38.40
2019-03-24T18:39:01.163Z,38.73
2019-03-24T18:41:29.758Z,40.37
2019-03-24T18:43:58.367Z,38.23
2019-03-24T18:46:26.970Z,38.27
2019-03-24T18:48:55.600Z,37.07
2019-03-24T18:51:24.179Z,39.00
2019-03-24T18:53:52.813Z,38.33
2019-03-24T18:56:21.500Z,37.63
2019-03-24T18:58:50.062Z,38.43
2019-03-24T19:01:18.744Z,37.10
2019-03-24T19:03:47.330Z,38.43
2019-03-24T19:06:15.895Z,38.30
2019-03-24T19:08:44.504Z,37.03
2019-03-24T19:11:13.080Z,36.07
2019-03-24T19:13:41.663Z,37.07
2019-03-24T19:16:10.247Z,36.50
2019-03-24T19:18:38.807Z,37.40
2019-03-24T19:21:07.431Z,37.73
2019-03-24T19:23:36.049Z,39.97
2019-03-24T19:26:04.708Z,38.47
2019-03-24T19:28:33.284Z,37.63
2019-03-24T19:31:01.966Z,43.95
2019-03-24T19:33:30.593Z,38.83
2019-03-24T19:35:59.381Z,39.10
2019-03-24T19:38:28.684Z,39.10
2019-03-24T19:40:57.329Z,38.77
2019-03-24T19:43:25.935Z,39.13
2019-03-24T19:45:54.504Z,38.80
2019-03-24T19:48:23.103Z,39.37
2019-03-24T19:50:51.670Z,38.03
2019-03-24T19:53:20.319Z,39.00
2019-03-24T19:55:48.916Z,40.60
2019-03-24T19:58:17.460Z,38.53
2019-03-24T20:00:46.028Z,37.63
2019-03-24T20:03:14.701Z,40.30
2019-03-24T20:05:43.405Z,40.57
2019-03-24T20:08:12.067Z,41.37
2019-03-24T20:10:40.716Z,46.57
2019-03-24T20:13:09.489Z,43.53
2019-03-24T20:15:38.061Z,45.57
2019-03-24T20:18:06.708Z,47.47
2019-03-24T20:20:35.345Z,40.80
2019-03-24T20:23:04.063Z,39.73
2019-03-24T20:25:32.596Z,38.23
2019-03-24T20:28:01.304Z,37.77
2019-03-24T20:30:29.979Z,39.80
2019-03-24T20:32:58.754Z,38.00
2019-03-24T20:35:27.459Z,38.03
2019-03-24T20:37:56.155Z,38.00
2019-03-24T20:40:24.741Z,39.30
2019-03-24T20:42:53.427Z,39.03
2019-03-24T20:45:22.005Z,39.23
2019-03-24T20:47:50.667Z,39.13
2019-03-24T20:50:19.388Z,37.90
2019-03-24T20:52:47.978Z,37.80
2019-03-24T20:55:16.615Z,39.33
2019-03-24T20:57:45.196Z,38.67
2019-03-24T21:00:15.091Z,40.20
2019-03-24T21:02:43.667Z,40.67
2019-03-24T21:05:12.316Z,40.77
2019-03-24T21:07:40.992Z,43.30
2019-03-24T21:10:09.695Z,40.90
2019-03-24T21:12:38.330Z,40.23
2019-03-24T21:15:07.922Z,39.47
2019-03-24T21:17:36.584Z,40.00
2019-03-24T21:20:07.772Z,38.67
2019-03-24T21:22:36.395Z,36.53
2019-03-24T21:25:06.712Z,35.57
2019-03-24T21:27:35.267Z,35.07
2019-03-24T21:30:05.863Z,35.90
2019-03-24T21:32:34.419Z,36.23
2019-03-24T21:35:03.064Z,36.33
2019-03-24T21:37:31.699Z,35.60
2019-03-24T21:40:00.343Z,36.20
2019-03-24T21:42:28.963Z,37.47
2019-03-24T21:44:57.531Z,37.17
2019-03-24T21:47:26.087Z,36.60
2019-03-24T21:49:54.712Z,38.47
2019-03-24T21:52:23.285Z,37.30
2019-03-24T21:54:51.859Z,38.50
2019-03-24T21:57:20.417Z,38.83
2019-03-24T21:59:49.003Z,41.73
2019-03-24T22:02:17.609Z,41.17
2019-03-24T22:04:46.238Z,42.60
2019-03-24T22:07:14.858Z,40.10
2019-03-24T22:09:43.436Z,42.50
2019-03-24T22:12:12.028Z,41.70
2019-03-24T22:14:40.615Z,41.77
2019-03-24T22:17:09.384Z,42.20
2019-03-24T22:19:38.774Z,44.00
2019-03-24T22:22:07.455Z,41.03
2019-03-24T22:24:36.041Z,41.43
2019-03-24T22:27:04.663Z,44.50
2019-03-24T22:29:33.230Z,40.67
2019-03-24T22:32:01.827Z,42.43
2019-03-24T22:34:30.417Z,45.37
2019-03-24T22:36:59.002Z,43.37
2019-03-24T22:39:27.750Z,41.27
2019-03-24T22:41:56.297Z,43.30
2019-03-24T22:44:24.947Z,42.97
2019-03-24T22:46:53.573Z,45.20
2019-03-24T22:49:22.253Z,44.40
2019-03-24T22:51:50.805Z,43.37
2019-03-24T22:54:19.384Z,42.83
2019-03-24T22:56:48.048Z,43.07
2019-03-24T22:59:16.579Z,42.83
2019-03-24T23:01:45.239Z,46.03
2019-03-24T23:04:13.828Z,46.50
2019-03-24T23:06:42.499Z,45.53
2019-03-24T23:09:11.419Z,44.33
2019-03-24T23:11:40.047Z,45.17
2019-03-24T23:14:08.627Z,47.23
2019-03-24T23:16:37.191Z,47.97
2019-03-24T23:19:05.839Z,45.90
2019-03-24T23:21:34.471Z,43.83
2019-03-24T23:24:14.617Z,47.13
2019-03-24T23:26:34.966Z,47.93
2019-03-24T23:29:03.608Z,49.60
2019-03-24T23:31:34.132Z,48.17
2019-03-24T23:34:02.752Z,45.67
2019-03-24T23:36:31.415Z,43.40
2019-03-24T23:38:59.967Z,45.90
2019-03-24T23:41:28.596Z,46.80
2019-03-24T23:43:57.156Z,44.53
2019-03-24T23:46:25.736Z,48.47
2019-03-24T23:48:54.288Z,44.60
2019-03-24T23:51:22.865Z,46.37
2019-03-24T23:53:51.435Z,45.93
2019-03-24T23:56:20.016Z,46.77
2019-03-24T23:58:48.580Z,46.10
